Time;durP1;ratioP1;P1;durP2;ratioP2;P2;SDS_P1;SDS_P2;PMS_P1;PMS_P2;Temp;Humidity;BMP_temperature;BMP_pressure;BME280_temperature;BME280_humidity;BME280_pressure;Samples;Min_cycle;Max_cycle;Signal;HPM_P1;HPM_P2
2023/06/10 00:00:22;;;;;;;8.13;5.13;;;17.20;99.90;;;;;;5094458;28;20556;-67
2023/06/10 00:02:49;;;;;;;7.13;4.80;;;17.10;99.90;;;;;;5094928;28;20449;-67
2023/06/10 00:05:19;;;;;;;12.27;5.03;;;17.10;99.90;;;;;;5094759;28;20540;-67
2023/06/10 00:07:48;;;;;;;7.50;4.90;;;17.10;99.90;;;;;;5094989;28;20464;-67
2023/06/10 00:10:15;;;;;;;6.27;4.40;;;17.00;99.90;;;;;;5095046;28;20544;-67
2023/06/10 00:12:43;;;;;;;8.10;4.77;;;17.00;99.90;;;;;;5094391;28;20485;-67
2023/06/10 00:15:11;;;;;;;10.50;4.43;;;17.00;99.90;;;;;;5094809;28;20918;-67
2023/06/10 00:17:38;;;;;;;8.83;5.23;;;17.00;99.90;;;;;;5094719;28;20914;-67
2023/06/10 00:20:08;;;;;;;7.70;4.87;;;16.90;99.90;;;;;;5094880;28;20837;-67
2023/06/10 00:22:35;;;;;;;11.13;4.80;;;16.90;99.90;;;;;;5094747;28;20485;-67
2023/06/10 00:25:05;;;;;;;10.73;4.70;;;16.90;99.90;;;;;;5094732;28;20452;-67
2023/06/10 00:27:34;;;;;;;11.10;4.83;;;16.90;99.90;;;;;;5094263;28;20886;-67
2023/06/10 00:30:04;;;;;;;12.33;4.67;;;16.90;99.90;;;;;;5094852;28;20544;-67
2023/06/10 00:32:30;;;;;;;10.20;5.83;;;16.80;99.90;;;;;;5094294;28;20480;-66
2023/06/10 00:34:57;;;;;;;10.13;4.60;;;16.80;99.90;;;;;;5094257;28;20548;-67
2023/06/10 00:37:24;;;;;;;7.63;5.40;;;16.80;99.90;;;;;;5094521;28;20736;-66
2023/06/10 00:39:51;;;;;;;6.07;4.47;;;16.80;99.90;;;;;;5094467;28;20853;-67
2023/06/10 00:42:19;;;;;;;7.27;4.90;;;16.80;99.90;;;;;;5094189;28;20539;-67
2023/06/10 00:44:46;;;;;;;7.50;4.50;;;16.70;99.90;;;;;;5094340;28;20453;-67
2023/06/10 00:47:13;;;;;;;9.63;5.43;;;16.70;99.90;;;;;;5094312;28;20453;-67
2023/06/10 00:49:40;;;;;;;9.10;5.03;;;16.70;99.90;;;;;;5094827;28;20857;-69
2023/06/10 00:52:10;;;;;;;6.70;3.90;;;16.70;99.90;;;;;;5094220;28;20965;-67
2023/06/10 00:54:37;;;;;;;7.93;4.33;;;16.70;99.90;;;;;;5093956;28;20514;-67
2023/06/10 00:57:06;;;;;;;12.20;5.13;;;16.70;99.90;;;;;;5093964;28;20453;-67
2023/06/10 00:59:35;;;;;;;10.53;5.00;;;16.60;99.90;;;;;;5093915;28;20909;-67
2023/06/10 01:02:03;;;;;;;9.40;4.97;;;16.60;99.90;;;;;;5094230;28;20510;-67
2023/06/10 01:04:30;;;;;;;10.43;5.30;;;16.60;99.90;;;;;;5094291;28;20457;-67
2023/06/10 01:07:06;;;;;;;12.03;6.13;;;16.50;99.90;;;;;;5094254;28;20536;-67
2023/06/10 01:09:41;;;;;;;8.90;4.60;;;16.50;99.90;;;;;;5094323;28;20445;-67
2023/06/10 01:12:14;;;;;;;6.30;4.60;;;16.50;99.90;;;;;;5093930;28;20484;-66
2023/06/10 01:14:44;;;;;;;8.17;5.27;;;16.50;99.90;;;;;;5094262;28;20451;-67
2023/06/10 01:17:12;;;;;;;6.73;4.60;;;16.40;99.90;;;;;;5095971;28;20514;-66
2023/06/10 01:19:40;;;;;;;10.40;5.07;;;16.40;99.90;;;;;;5097981;28;20461;-66
2023/06/10 01:22:10;;;;;;;10.17;5.30;;;16.40;99.90;;;;;;5098036;28;20457;-66
2023/06/10 01:24:40;;;;;;;8.83;4.80;;;16.30;99.90;;;;;;5097705;28;20457;-66
2023/06/10 01:27:12;;;;;;;9.07;5.17;;;16.30;99.90;;;;;;5097838;28;20533;-66
2023/06/10 01:29:44;;;;;;;9.00;4.70;;;16.30;99.90;;;;;;5097781;28;20445;-66
2023/06/10 01:32:18;;;;;;;9.63;5.00;;;16.30;99.90;;;;;;5097782;28;20478;-66
2023/06/10 01:34:46;;;;;;;6.27;4.23;;;16.30;99.90;;;;;;5097603;28;20524;-66
2023/06/10 01:37:17;;;;;;;11.97;5.33;;;16.20;99.90;;;;;;5097430;28;20549;-66
2023/06/10 01:39:44;;;;;;;7.40;5.13;;;16.20;99.90;;;;;;5097351;28;20441;-66
2023/06/10 01:42:12;;;;;;;7.43;4.67;;;16.20;99.90;;;;;;5097534;28;21001;-66
2023/06/10 01:44:41;;;;;;;9.93;4.50;;;16.20;99.90;;;;;;5097594;28;20445;-66
2023/06/10 01:47:08;;;;;;;7.67;4.50;;;16.20;99.90;;;;;;5097076;28;20453;-66
2023/06/10 01:49:35;;;;;;;7.20;4.73;;;16.20;99.90;;;;;;5097172;28;20452;-67
2023/06/10 01:52:02;;;;;;;13.27;5.73;;;16.20;99.90;;;;;;5097253;28;20453;-66
2023/06/10 01:54:31;;;;;;;10.53;5.30;;;16.10;99.90;;;;;;5097136;28;20540;-67
2023/06/10 01:56:58;;;;;;;10.67;4.87;;;16.10;99.90;;;;;;5097222;28;20460;-67
2023/06/10 01:59:24;;;;;;;7.73;4.93;;;16.10;99.90;;;;;;5096851;28;20457;-67
2023/06/10 02:01:51;;;;;;;8.70;4.90;;;16.00;99.90;;;;;;5096957;28;20483;-67
2023/06/10 02:04:18;;;;;;;10.33;4.60;;;16.00;99.90;;;;;;5096973;28;20526;-66
2023/06/10 02:06:46;;;;;;;9.40;4.90;;;16.00;99.90;;;;;;5097019;28;20514;-66
2023/06/10 02:09:12;;;;;;;11.53;4.93;;;16.00;99.90;;;;;;5096964;28;20480;-66
2023/06/10 02:11:41;;;;;;;11.57;5.03;;;16.00;99.90;;;;;;5096883;28;20633;-66
2023/06/10 02:14:07;;;;;;;12.30;5.10;;;16.00;99.90;;;;;;5096804;28;20496;-66
2023/06/10 02:16:34;;;;;;;10.63;5.00;;;15.90;99.90;;;;;;5096905;28;20453;-66
2023/06/10 02:19:02;;;;;;;8.07;5.40;;;15.90;99.90;;;;;;5096473;28;20457;-67
2023/06/10 02:21:29;;;;;;;6.60;4.67;;;15.90;99.90;;;;;;5096471;28;20449;-67
2023/06/10 02:23:56;;;;;;;11.30;4.77;;;15.80;99.90;;;;;;5096915;28;20489;-66
2023/06/10 02:26:22;;;;;;;30.23;21.30;;;15.90;99.90;;;;;;5096572;28;20461;-66
2023/06/10 02:28:51;;;;;;;14.83;9.30;;;15.80;99.90;;;;;;5096636;28;20464;-66
2023/06/10 02:31:19;;;;;;;10.87;4.80;;;15.80;99.90;;;;;;5096583;28;20540;-66
2023/06/10 02:33:46;;;;;;;7.63;4.93;;;15.80;99.90;;;;;;5096264;28;20564;-66
2023/06/10 02:36:15;;;;;;;11.70;5.40;;;15.80;99.90;;;;;;5096341;28;20463;-66
2023/06/10 02:38:42;;;;;;;10.50;5.30;;;15.80;99.90;;;;;;5096007;28;20464;-66
2023/06/10 02:41:09;;;;;;;11.33;7.33;;;15.70;99.90;;;;;;5096327;28;20787;-66
2023/06/10 02:43:35;;;;;;;17.23;11.17;;;15.70;99.90;;;;;;5095943;28;20463;-65
2023/06/10 02:46:03;;;;;;;8.13;5.00;;;15.70;99.90;;;;;;5096106;28;20457;-65
2023/06/10 02:48:30;;;;;;;14.73;5.63;;;15.70;99.90;;;;;;5096076;28;20543;-67
2023/06/10 02:50:57;;;;;;;9.77;5.53;;;15.60;99.90;;;;;;5095807;28;20910;-65
2023/06/10 02:53:24;;;;;;;7.63;5.40;;;15.60;99.90;;;;;;5095567;28;20519;-65
2023/06/10 02:55:51;;;;;;;12.70;5.50;;;15.60;99.90;;;;;;5095550;28;20754;-65
2023/06/10 02:58:17;;;;;;;10.20;5.70;;;15.60;99.90;;;;;;5095850;28;20463;-65
2023/06/10 03:00:45;;;;;;;9.07;5.20;;;15.60;99.90;;;;;;5095788;28;20549;-67
2023/06/10 03:03:13;;;;;;;9.57;5.53;;;15.60;99.90;;;;;;5095792;28;20546;-65
2023/06/10 03:05:40;;;;;;;8.00;5.27;;;15.60;99.90;;;;;;5095384;28;20586;-66
2023/06/10 03:08:07;;;;;;;11.90;5.20;;;15.60;99.90;;;;;;5095427;28;20501;-66
2023/06/10 03:10:33;;;;;;;10.13;5.90;;;15.60;99.90;;;;;;5095620;28;20453;-66
2023/06/10 03:13:00;;;;;;;11.83;5.60;;;15.60;99.90;;;;;;5094756;28;20515;-65
2023/06/10 03:15:28;;;;;;;9.70;4.77;;;15.60;99.90;;;;;;5095553;28;20552;-65
2023/06/10 03:17:55;;;;;;;9.83;5.53;;;15.50;99.90;;;;;;5095272;28;20858;-67
2023/06/10 03:20:25;;;;;;;10.23;5.30;;;15.50;99.90;;;;;;5095077;28;20467;-67
2023/06/10 03:22:52;;;;;;;9.93;5.10;;;15.50;99.90;;;;;;5095432;28;20901;-65
2023/06/10 03:25:20;;;;;;;8.50;5.47;;;15.50;99.90;;;;;;5094891;28;20464;-66
2023/06/10 03:27:47;;;;;;;11.93;5.80;;;15.50;99.90;;;;;;5094976;28;20464;-65
2023/06/10 03:30:15;;;;;;;9.77;5.53;;;15.50;99.90;;;;;;5094830;28;20939;-65
2023/06/10 03:32:42;;;;;;;10.13;7.53;;;15.50;99.90;;;;;;5094693;28;20553;-65
2023/06/10 03:35:09;;;;;;;7.63;5.60;;;15.50;99.90;;;;;;5094999;28;20463;-66
2023/06/10 03:37:37;;;;;;;9.83;5.33;;;15.50;99.90;;;;;;5095023;28;20457;-65
2023/06/10 03:40:06;;;;;;;7.70;6.10;;;15.50;99.90;;;;;;5094150;28;20556;-65
2023/06/10 03:42:33;;;;;;;10.10;5.90;;;15.50;99.90;;;;;;5094547;28;20462;-65
2023/06/10 03:45:00;;;;;;;11.20;5.70;;;15.50;99.90;;;;;;5094732;28;20463;-65
2023/06/10 03:47:26;;;;;;;10.90;5.50;;;15.50;99.90;;;;;;5094425;28;20913;-65
2023/06/10 03:49:53;;;;;;;11.17;6.00;;;15.50;99.90;;;;;;5094391;28;20850;-66
2023/06/10 03:52:20;;;;;;;10.03;6.03;;;15.60;99.90;;;;;;5094736;28;20461;-66
2023/06/10 03:54:48;;;;;;;9.77;6.17;;;15.50;99.90;;;;;;5094518;28;20481;-66
2023/06/10 03:57:15;;;;;;;10.67;6.83;;;15.50;99.90;;;;;;5094706;28;20735;-66
2023/06/10 03:59:42;;;;;;;8.60;6.07;;;15.60;99.90;;;;;;5094697;28;20457;-66
2023/06/10 04:02:09;;;;;;;11.73;6.10;;;15.60;99.90;;;;;;5094169;28;20929;-66
2023/06/10 04:04:37;;;;;;;10.07;5.50;;;15.60;99.90;;;;;;5094458;28;20481;-66
2023/06/10 04:07:04;;;;;;;12.20;6.53;;;15.60;99.90;;;;;;5094407;28;20607;-66
2023/06/10 04:09:31;;;;;;;12.83;7.23;;;15.60;99.90;;;;;;5093979;28;20467;-66
2023/06/10 04:11:59;;;;;;;10.93;6.53;;;15.60;99.90;;;;;;5094037;28;20489;-66
2023/06/10 04:14:26;;;;;;;12.23;6.90;;;15.60;99.90;;;;;;5094253;28;20482;-66
2023/06/10 04:16:53;;;;;;;15.10;9.87;;;15.70;99.90;;;;;;5094517;28;20543;-66
2023/06/10 04:19:20;;;;;;;10.67;6.03;;;15.70;99.90;;;;;;5093825;28;20891;-66
2023/06/10 04:21:47;;;;;;;9.63;6.20;;;15.70;99.90;;;;;;5094227;28;20457;-66
2023/06/10 04:24:14;;;;;;;13.20;6.20;;;15.80;99.90;;;;;;5094047;28;20456;-66
2023/06/10 04:26:41;;;;;;;11.13;7.00;;;15.80;99.90;;;;;;5094417;28;20720;-66
2023/06/10 04:29:09;;;;;;;13.77;7.17;;;15.80;99.90;;;;;;5094311;28;20467;-66
2023/06/10 04:31:36;;;;;;;12.80;7.27;;;15.80;99.90;;;;;;5094340;28;20553;-66
2023/06/10 04:34:03;;;;;;;16.20;7.50;;;15.90;99.90;;;;;;5093939;28;20483;-66
2023/06/10 04:36:30;;;;;;;12.60;7.27;;;15.90;99.90;;;;;;5094092;28;20937;-66
2023/06/10 04:38:57;;;;;;;11.23;6.60;;;15.90;99.90;;;;;;5094290;28;20479;-66
2023/06/10 04:41:24;;;;;;;12.80;6.97;;;16.00;99.90;;;;;;5094233;28;20548;-66
2023/06/10 04:43:51;;;;;;;8.50;6.37;;;16.00;99.90;;;;;;5094007;28;20924;-66
2023/06/10 04:46:19;;;;;;;15.40;7.10;;;16.00;99.90;;;;;;5094181;28;20453;-66
2023/06/10 04:48:46;;;;;;;8.33;5.90;;;16.00;99.90;;;;;;5094282;28;20890;-66
2023/06/10 04:51:14;;;;;;;12.50;6.47;;;16.10;99.90;;;;;;5096047;28;20558;-66
2023/06/10 04:53:40;;;;;;;15.63;7.60;;;16.20;99.90;;;;;;5098317;28;20886;-66
2023/06/10 04:56:08;;;;;;;10.07;6.20;;;16.20;99.90;;;;;;5098372;28;20463;-66
2023/06/10 04:58:35;;;;;;;12.00;6.60;;;16.30;99.90;;;;;;5098523;28;20467;-66
2023/06/10 05:01:02;;;;;;;11.50;6.83;;;16.30;99.90;;;;;;5097962;28;20463;-66
2023/06/10 05:03:31;;;;;;;7.60;6.20;;;16.40;99.90;;;;;;5098769;28;20778;-67
2023/06/10 05:05:57;;;;;;;11.97;6.43;;;16.40;99.90;;;;;;5097947;28;20627;-66
2023/06/10 05:08:24;;;;;;;8.13;6.93;;;16.40;99.90;;;;;;5098098;28;20464;-65
2023/06/10 05:10:51;;;;;;;11.90;6.27;;;16.50;99.90;;;;;;5098134;28;20841;-65
2023/06/10 05:13:18;;;;;;;9.37;6.20;;;16.50;99.90;;;;;;5097888;28;20499;-65
2023/06/10 05:15:46;;;;;;;9.70;6.13;;;16.60;99.90;;;;;;5097782;28;20917;-66
2023/06/10 05:18:13;;;;;;;10.30;6.63;;;16.60;99.90;;;;;;5097687;28;20518;-65
2023/06/10 05:20:41;;;;;;;9.97;6.80;;;16.60;99.90;;;;;;5097710;28;20453;-65
2023/06/10 05:23:08;;;;;;;8.53;6.30;;;16.70;99.90;;;;;;5097775;28;20467;-65
2023/06/10 05:25:35;;;;;;;9.13;6.00;;;16.70;99.90;;;;;;5097764;28;20568;-65
2023/06/10 05:28:02;;;;;;;11.83;6.33;;;16.70;99.90;;;;;;5098046;28;20783;-65
2023/06/10 05:30:29;;;;;;;9.80;6.70;;;16.70;99.90;;;;;;5097740;28;20919;-65
2023/06/10 05:32:57;;;;;;;10.83;7.00;;;16.70;99.90;;;;;;5097690;28;20457;-66
2023/06/10 05:35:24;;;;;;;8.53;5.90;;;16.80;99.90;;;;;;5097508;28;20476;-66
2023/06/10 05:37:52;;;;;;;13.40;6.27;;;16.90;99.90;;;;;;5097122;28;20457;-66
2023/06/10 05:40:19;;;;;;;7.03;5.90;;;16.90;99.90;;;;;;5097404;28;20453;-66
2023/06/10 05:42:46;;;;;;;10.07;6.50;;;17.00;99.90;;;;;;5096969;28;20473;-66
2023/06/10 05:45:13;;;;;;;10.10;6.47;;;17.10;99.90;;;;;;5096881;28;20453;-66
2023/06/10 05:47:41;;;;;;;13.27;6.47;;;17.20;99.90;;;;;;5097045;28;20464;-66
2023/06/10 05:50:09;;;;;;;9.73;6.00;;;17.30;99.90;;;;;;5097194;28;20464;-66
2023/06/10 05:52:36;;;;;;;10.37;6.47;;;17.40;99.90;;;;;;5096931;28;20461;-66
2023/06/10 05:55:04;;;;;;;10.90;6.40;;;17.60;99.90;;;;;;5097098;28;20484;-66
2023/06/10 05:57:31;;;;;;;14.47;6.10;;;17.70;99.90;;;;;;5096833;28;20483;-66
2023/06/10 05:59:58;;;;;;;8.10;5.60;;;17.80;99.90;;;;;;5097222;28;20463;-66
2023/06/10 06:02:26;;;;;;;8.40;6.30;;;17.90;99.90;;;;;;5096196;28;20463;-66
2023/06/10 06:04:53;;;;;;;9.30;6.57;;;18.00;99.90;;;;;;5096971;28;20454;-66
2023/06/10 06:07:20;;;;;;;7.63;6.83;;;18.10;99.90;;;;;;5096948;28;20458;-66
2023/06/10 06:09:47;;;;;;;8.17;6.33;;;18.20;99.90;;;;;;5097035;28;20557;-65
2023/06/10 06:12:15;;;;;;;7.93;5.70;;;18.30;99.90;;;;;;5096822;28;20938;-65
2023/06/10 06:14:42;;;;;;;9.57;6.20;;;18.30;99.90;;;;;;5096863;28;20493;-65
2023/06/10 06:17:09;;;;;;;7.10;5.33;;;18.40;99.90;;;;;;5096738;28;20457;-66
2023/06/10 06:19:36;;;;;;;9.70;5.63;;;18.50;99.90;;;;;;5096611;28;20787;-66
2023/06/10 06:22:03;;;;;;;12.40;6.70;;;18.60;99.90;;;;;;5096310;28;20454;-66
2023/06/10 06:24:30;;;;;;;9.43;5.47;;;18.70;99.90;;;;;;5096311;28;20461;-66
2023/06/10 06:26:56;;;;;;;7.13;5.60;;;18.80;99.90;;;;;;5096454;28;20546;-66
2023/06/10 06:29:25;;;;;;;9.17;5.90;;;18.90;99.90;;;;;;5096536;28;20950;-66
2023/06/10 06:31:52;;;;;;;8.47;5.03;;;19.10;99.90;;;;;;5095949;28;20544;-66
2023/06/10 06:34:18;;;;;;;9.33;6.30;;;19.10;99.90;;;;;;5096165;28;20663;-66
2023/06/10 06:36:45;;;;;;;9.60;5.70;;;19.20;99.90;;;;;;5096334;28;20500;-66
2023/06/10 06:39:12;;;;;;;8.87;6.23;;;19.20;99.90;;;;;;5095902;28;20464;-66
2023/06/10 06:41:39;;;;;;;8.63;6.00;;;19.30;99.90;;;;;;5096388;28;20793;-65
2023/06/10 06:44:06;;;;;;;15.70;6.30;;;19.40;99.90;;;;;;5096186;28;20485;-66
2023/06/10 06:46:34;;;;;;;8.87;5.93;;;19.50;99.90;;;;;;5096434;28;20780;-65
2023/06/10 06:49:01;;;;;;;8.80;6.50;;;19.50;99.90;;;;;;5095915;28;20553;-65
2023/06/10 06:51:28;;;;;;;9.70;6.57;;;19.60;99.90;;;;;;5096175;28;20468;-65
2023/06/10 06:53:58;;;;;;;18.57;6.23;;;19.60;99.90;;;;;;5096265;28;20481;-66
2023/06/10 06:56:26;;;;;;;11.00;5.90;;;19.60;99.90;;;;;;5096100;28;20843;-66
2023/06/10 06:58:53;;;;;;;8.70;6.23;;;19.70;99.90;;;;;;5095751;28;20461;-66
2023/06/10 07:01:20;;;;;;;10.83;6.37;;;19.70;99.90;;;;;;5095939;28;20532;-66
2023/06/10 07:03:48;;;;;;;15.93;6.93;;;19.70;99.90;;;;;;5096003;28;20454;-66
2023/06/10 07:06:15;;;;;;;7.90;6.40;;;19.80;99.90;;;;;;5095721;28;20552;-66
2023/06/10 07:08:42;;;;;;;7.33;5.43;;;20.00;99.90;;;;;;5095678;28;20463;-66
2023/06/10 07:11:08;;;;;;;7.10;5.73;;;20.10;99.90;;;;;;5095282;28;20453;-66
2023/06/10 07:13:35;;;;;;;6.43;5.73;;;20.20;99.90;;;;;;5094951;28;20609;-66
2023/06/10 07:16:02;;;;;;;10.33;6.10;;;20.40;99.90;;;;;;5094911;28;20460;-66
2023/06/10 07:18:29;;;;;;;10.67;6.40;;;20.50;99.90;;;;;;5094962;28;20985;-66
2023/06/10 07:20:57;;;;;;;12.67;6.03;;;20.70;99.90;;;;;;5095160;28;20457;-66
2023/06/10 07:23:24;;;;;;;13.20;5.57;;;20.80;99.90;;;;;;5095010;28;20453;-66
2023/06/10 07:25:51;;;;;;;10.53;6.20;;;20.90;99.90;;;;;;5095219;28;20541;-66
2023/06/10 07:28:18;;;;;;;10.00;6.30;;;21.00;99.90;;;;;;5095180;28;20492;-66
2023/06/10 07:30:45;;;;;;;6.80;5.50;;;21.00;99.90;;;;;;5095420;28;20546;-66
2023/06/10 07:33:12;;;;;;;8.23;6.23;;;21.10;99.90;;;;;;5095388;28;20453;-66
2023/06/10 07:35:38;;;;;;;8.00;5.67;;;21.10;99.90;;;;;;5095162;28;20771;-66
2023/06/10 07:38:07;;;;;;;9.67;6.63;;;21.10;99.90;;;;;;5095401;28;20463;-66
2023/06/10 07:40:33;;;;;;;9.77;6.40;;;21.20;99.90;;;;;;5095251;28;20644;-66
2023/06/10 07:43:00;;;;;;;12.60;7.00;;;21.20;99.90;;;;;;5095862;28;20546;-66
2023/06/10 07:45:27;;;;;;;11.90;7.33;;;21.20;99.90;;;;;;5094688;28;20449;-66
2023/06/10 07:47:54;;;;;;;8.60;6.13;;;21.20;99.90;;;;;;5094666;28;20457;-66
2023/06/10 07:50:21;;;;;;;6.80;5.83;;;21.20;99.90;;;;;;5094887;28;20457;-66
2023/06/10 07:52:48;;;;;;;9.43;6.90;;;21.30;99.90;;;;;;5094611;28;20467;-66
2023/06/10 07:55:16;;;;;;;9.10;6.40;;;21.30;99.90;;;;;;5094859;28;20815;-66
2023/06/10 07:57:43;;;;;;;7.23;6.63;;;21.30;99.90;;;;;;5094492;28;20464;-66
2023/06/10 08:00:11;;;;;;;8.57;6.57;;;21.30;99.90;;;;;;5094340;28;20458;-66
2023/06/10 08:02:38;;;;;;;9.60;5.90;;;21.30;99.90;;;;;;5094387;28;20553;-67
2023/06/10 08:05:05;;;;;;;7.90;7.00;;;21.40;99.90;;;;;;5094674;28;20464;-67
2023/06/10 08:07:32;;;;;;;7.30;6.50;;;21.40;99.90;;;;;;5094752;28;20464;-66
2023/06/10 08:09:59;;;;;;;9.67;6.30;;;21.50;99.90;;;;;;5094463;28;20457;-66
2023/06/10 08:12:27;;;;;;;8.97;6.60;;;21.60;99.90;;;;;;5094316;28;20520;-66
2023/06/10 08:14:57;;;;;;;6.13;5.50;;;21.70;99.90;;;;;;5094200;28;20523;-66
2023/06/10 08:17:24;;;;;;;6.60;6.00;;;21.80;99.90;;;;;;5094359;28;20493;-66
2023/06/10 08:19:51;;;;;;;11.13;7.40;;;21.90;99.90;;;;;;5094630;28;20449;-66
2023/06/10 08:22:18;;;;;;;12.60;7.47;;;21.90;99.90;;;;;;5094678;28;20929;-67
2023/06/10 08:24:45;;;;;;;12.97;10.50;;;21.90;99.90;;;;;;5094539;28;20846;-66
2023/06/10 08:27:12;;;;;;;11.73;6.90;;;22.00;99.90;;;;;;5094508;28;20453;-66
2023/06/10 08:29:40;;;;;;;8.10;7.23;;;22.00;99.90;;;;;;5094544;28;20472;-66
2023/06/10 08:32:07;;;;;;;7.20;6.43;;;22.00;99.90;;;;;;5094198;28;20457;-66
2023/06/10 08:34:35;;;;;;;12.20;6.73;;;22.10;99.90;;;;;;5094213;28;20505;-66
2023/06/10 08:37:01;;;;;;;9.30;7.27;;;22.20;99.90;;;;;;5094308;28;20457;-66
2023/06/10 08:39:31;;;;;;;13.20;6.50;;;22.30;99.90;;;;;;5094083;28;20463;-67
2023/06/10 08:42:09;;;;;;;10.00;7.70;;;22.40;99.90;;;;;;5094575;28;20846;-67
2023/06/10 08:44:38;;;;;;;7.20;6.50;;;22.60;99.90;;;;;;5093928;28;20555;-66
2023/06/10 08:47:13;;;;;;;12.77;6.20;;;22.70;99.90;;;;;;5094565;28;20777;-67
2023/06/10 08:49:44;;;;;;;8.10;5.93;;;22.80;99.90;;;;;;5094048;28;20468;-66
2023/06/10 08:52:15;;;;;;;9.00;5.67;;;22.80;99.90;;;;;;5094154;28;20459;-66
2023/06/10 08:54:44;;;;;;;15.27;13.63;;;22.80;99.90;;;;;;5093890;28;21039;-67
2023/06/10 08:57:11;;;;;;;12.97;6.37;;;22.80;99.90;;;;;;5094129;28;20534;-68
2023/06/10 08:59:38;;;;;;;11.03;6.30;;;22.80;99.90;;;;;;5094340;28;20453;-66
2023/06/10 09:02:08;;;;;;;6.80;6.10;;;22.80;99.90;;;;;;5094191;28;20562;-66
2023/06/10 09:04:35;;;;;;;9.03;6.23;;;22.80;99.90;;;;;;5093897;28;20460;-66
2023/06/10 09:07:04;;;;;;;10.27;6.37;;;22.80;99.90;;;;;;5094154;28;20453;-66
2023/06/10 09:09:32;;;;;;;9.17;6.90;;;22.80;99.90;;;;;;5093971;28;20453;-66
2023/06/10 09:11:59;;;;;;;7.77;6.47;;;22.80;99.90;;;;;;5093575;28;20585;-66
2023/06/10 09:14:26;;;;;;;11.53;6.57;;;22.80;99.90;;;;;;5093445;28;20540;-66
2023/06/10 09:16:56;;;;;;;7.90;6.03;;;22.80;99.90;;;;;;5093951;28;20463;-66
2023/06/10 09:19:26;;;;;;;7.53;6.00;;;22.80;99.90;;;;;;5093958;28;20454;-66
2023/06/10 09:21:52;;;;;;;9.97;7.23;;;22.80;99.90;;;;;;5094499;28;20453;-66
2023/06/10 09:24:19;;;;;;;8.80;6.30;;;22.70;99.90;;;;;;5094129;28;20784;-66
2023/06/10 09:26:46;;;;;;;9.87;6.20;;;22.60;99.90;;;;;;5093978;28;20471;-66
2023/06/10 09:29:13;;;;;;;9.43;6.33;;;22.60;99.90;;;;;;5093682;28;20453;-66
2023/06/10 09:31:41;;;;;;;9.90;6.83;;;22.50;99.90;;;;;;5093779;28;20544;-66
2023/06/10 09:34:09;;;;;;;14.63;10.07;;;22.30;99.90;;;;;;5093572;28;20457;-64
2023/06/10 09:36:39;;;;;;;14.80;12.03;;;22.30;99.90;;;;;;5093461;28;20491;-64
2023/06/10 09:39:14;;;;;;;14.23;6.97;;;22.20;99.90;;;;;;5096663;28;20552;-64
2023/06/10 09:41:41;;;;;;;14.23;6.60;;;22.20;99.90;;;;;;5097517;28;20781;-64
2023/06/10 09:44:13;;;;;;;49.47;38.30;;;22.10;99.90;;;;;;5097177;28;20453;-64
2023/06/10 09:46:40;;;;;;;8.83;7.83;;;22.10;99.90;;;;;;5097647;28;20446;-64
2023/06/10 09:49:06;;;;;;;8.30;6.80;;;22.10;99.90;;;;;;5097543;28;20556;-64
2023/06/10 09:51:33;;;;;;;9.20;7.23;;;22.10;99.90;;;;;;5097730;28;20548;-67
2023/06/10 09:54:04;;;;;;;17.67;7.53;;;22.10;99.90;;;;;;5097501;28;20453;-67
2023/06/10 09:56:35;;;;;;;8.60;7.00;;;22.10;99.90;;;;;;5097260;28;20461;-67
2023/06/10 09:59:02;;;;;;;8.53;6.70;;;22.10;99.90;;;;;;5097131;28;20464;-67
2023/06/10 10:01:29;;;;;;;10.90;6.77;;;22.10;99.90;;;;;;5097449;28;20445;-67
2023/06/10 10:03:56;;;;;;;10.83;7.30;;;22.20;99.90;;;;;;5096725;28;20453;-67
2023/06/10 10:06:23;;;;;;;10.73;7.37;;;22.20;99.90;;;;;;5096632;28;20544;-67
2023/06/10 10:08:51;;;;;;;9.23;7.47;;;22.20;99.90;;;;;;5096953;28;20790;-67
2023/06/10 10:11:21;;;;;;;18.43;6.83;;;22.10;99.90;;;;;;5096594;28;20453;-67
2023/06/10 10:13:50;;;;;;;11.27;7.70;;;22.10;99.90;;;;;;5096596;28;20464;-66
2023/06/10 10:16:19;;;;;;;10.63;7.27;;;22.10;99.90;;;;;;5096647;28;20481;-67
2023/06/10 10:18:50;;;;;;;12.30;8.33;;;22.10;99.90;;;;;;5096283;28;20489;-67
2023/06/10 10:21:19;;;;;;;8.87;7.80;;;22.20;99.90;;;;;;5096571;28;20468;-67
2023/06/10 10:23:56;;;;;;;11.53;7.40;;;22.30;99.90;;;;;;5096607;28;20889;-67
2023/06/10 10:26:27;;;;;;;11.03;6.80;;;22.30;99.90;;;;;;5096573;28;20870;-67
2023/06/10 10:29:02;;;;;;;9.73;8.73;;;22.40;99.90;;;;;;5096591;28;20521;-67
2023/06/10 10:31:33;;;;;;;10.30;7.00;;;22.50;99.90;;;;;;5096583;28;20456;-66
2023/06/10 10:34:01;;;;;;;6.63;6.00;;;22.60;99.90;;;;;;5096470;28;20441;-67
2023/06/10 10:36:29;;;;;;;8.33;5.63;;;22.60;99.90;;;;;;5095825;28;20487;-67
2023/06/10 10:38:57;;;;;;;5.90;5.33;;;22.60;99.90;;;;;;5096145;28;20856;-66
2023/06/10 10:41:27;;;;;;;7.70;5.80;;;22.70;99.90;;;;;;5096196;28;20789;-67
2023/06/10 10:43:55;;;;;;;6.60;6.00;;;22.60;99.90;;;;;;5096680;28;20464;-66
2023/06/10 10:46:22;;;;;;;8.60;6.10;;;22.60;99.90;;;;;;5096041;28;20453;-66
2023/06/10 10:48:54;;;;;;;5.80;5.30;;;22.60;99.90;;;;;;5096265;28;20463;-66
2023/06/10 10:51:21;;;;;;;7.60;5.63;;;22.60;99.90;;;;;;5096125;28;20929;-66
2023/06/10 10:54:12;;;;;;;5.03;4.63;;;22.60;99.90;;;;;;5095967;28;20453;-66
2023/06/10 10:57:01;;;;;;;5.37;4.97;;;22.50;99.90;;;;;;5096229;28;20762;-66
2023/06/10 10:59:56;;;;;;;5.37;4.97;;;22.50;99.90;;;;;;5095666;28;20454;-66
2023/06/10 11:02:38;;;;;;;6.20;5.40;;;22.50;99.90;;;;;;5095892;28;20468;-66
2023/06/10 11:05:06;;;;;;;4.90;4.37;;;22.70;99.90;;;;;;5096545;28;20845;-66
2023/06/10 11:07:34;;;;;;;6.20;5.30;;;22.80;99.90;;;;;;5095468;28;20517;-66
2023/06/10 11:10:02;;;;;;;5.97;5.27;;;22.90;99.90;;;;;;5096146;28;20932;-67
2023/06/10 11:12:43;;;;;;;6.50;5.83;;;23.10;99.90;;;;;;5095671;28;20481;-67
2023/06/10 11:15:10;;;;;;;6.83;4.90;;;23.30;99.90;;;;;;5095946;28;20529;-67
2023/06/10 11:17:36;;;;;;;5.20;4.70;;;23.40;99.90;;;;;;5096275;28;20453;-66
2023/06/10 11:20:05;;;;;;;6.50;5.90;;;23.50;99.90;;;;;;5096170;28;20483;-67
2023/06/10 11:22:32;;;;;;;6.50;5.80;;;23.50;99.90;;;;;;5095823;28;20468;-67
2023/06/10 11:24:59;;;;;;;6.07;5.43;;;23.60;99.90;;;;;;5095901;28;20453;-67
2023/06/10 11:27:26;;;;;;;5.93;5.33;;;23.70;99.90;;;;;;5095669;28;20461;-67
2023/06/10 11:30:26;;;;;;;5.30;4.80;;;23.80;99.90;;;;;;5095935;28;20488;-68
2023/06/10 11:32:53;;;;;;;5.97;5.37;;;23.90;99.90;;;;;;5096036;28;20452;-66
2023/06/10 11:35:21;;;;;;;7.60;5.27;;;24.30;99.90;;;;;;5096031;28;20503;-67
2023/06/10 11:37:49;;;;;;;5.93;5.33;;;25.00;99.90;;;;;;5095729;28;20460;-67
2023/06/10 11:40:16;;;;;;;6.63;5.27;;;26.20;99.90;;;;;;5095483;28;20468;-67
2023/06/10 11:42:43;;;;;;;8.00;5.50;;;27.40;99.90;;;;;;5095602;28;20506;-67
2023/06/10 11:45:16;;;;;;;6.63;6.03;;;28.40;99.90;;;;;;5095287;28;20514;-67
2023/06/10 11:47:56;;;;;;;9.00;7.77;;;29.30;99.90;;;;;;5094935;28;20773;-67
2023/06/10 11:50:29;;;;;;;6.97;6.33;;;30.00;99.90;;;;;;5094709;28;20445;-67
2023/06/10 11:52:58;;;;;;;6.70;6.00;;;30.60;99.90;;;;;;5094736;28;20442;-67
2023/06/10 11:55:25;;;;;;;6.93;6.43;;;31.00;99.90;;;;;;5094784;28;20480;-67
2023/06/10 11:57:57;;;;;;;7.77;6.80;;;31.40;99.50;;;;;;5095194;28;20543;-67
2023/06/10 12:00:24;;;;;;;9.90;7.20;;;31.70;97.70;;;;;;5094188;28;20441;-67
2023/06/10 12:02:58;;;;;;;7.10;6.50;;;31.90;95.80;;;;;;5094422;28;20457;-67
2023/06/10 12:05:25;;;;;;;7.20;6.50;;;32.10;90.20;;;;;;5094389;28;20891;-67
2023/06/10 12:08:10;;;;;;;9.10;6.63;;;32.20;88.40;;;;;;5094449;28;20463;-67
2023/06/10 12:10:41;;;;;;;7.50;6.80;;;32.30;85.30;;;;;;5094930;28;20445;-67
2023/06/10 12:13:08;;;;;;;7.07;6.47;;;32.60;83.30;;;;;;5094354;28;20481;-67
2023/06/10 12:15:35;;;;;;;6.43;5.87;;;32.80;79.10;;;;;;5094242;28;20495;-67
2023/06/10 12:18:04;;;;;;;6.13;5.57;;;33.20;71.50;;;;;;5094382;28;20478;-67
2023/06/10 12:20:33;;;;;;;6.40;5.80;;;33.60;64.20;;;;;;5094334;28;20522;-67
2023/06/10 12:23:01;;;;;;;5.00;4.60;;;33.90;57.10;;;;;;5094137;28;20457;-67
2023/06/10 12:25:29;;;;;;;5.60;5.10;;;34.10;52.00;;;;;;5094158;28;20457;-67
2023/06/10 12:27:57;;;;;;;5.13;4.73;;;34.30;49.70;;;;;;5094258;28;20495;-68
2023/06/10 12:30:26;;;;;;;5.73;5.23;;;34.50;45.20;;;;;;5094545;28;20457;-67
2023/06/10 12:32:53;;;;;;;5.63;5.20;;;34.70;43.00;;;;;;5094243;28;20453;-67
2023/06/10 12:35:24;;;;;;;5.77;5.20;;;34.90;42.20;;;;;;5093897;28;20948;-67
2023/06/10 12:38:00;;;;;;;4.77;4.37;;;35.10;39.60;;;;;;5094065;28;20449;-67
2023/06/10 12:40:28;;;;;;;6.20;5.70;;;35.00;38.90;;;;;;5094285;28;20457;-67
2023/06/10 12:42:55;;;;;;;6.07;5.47;;;35.00;39.10;;;;;;5094436;28;20514;-67
2023/06/10 12:45:28;;;;;;;6.57;5.93;;;35.00;39.10;;;;;;5094250;28;20453;-68
2023/06/10 12:48:07;;;;;;;7.83;6.80;;;35.20;38.30;;;;;;5094263;28;20442;-66